LS Concorde — ZDHJ7 — position and weather

sailwx.info

Track history (hours):
 
Tides and Currents Weather Stations Pressure Air Temp Water Temp Dewpoint Dewpoint Depression Visibility Wind Speed Wind Dir Waves Ship Positions

LS Concorde

Last reported at 2015-Jul-01 04:33 UTC. Time now 2015-Jul-01 04:48 UTC.
Position N 51°30' E 001°29'.

Length 99 m; draft 6 m.

Type: Tanker. MMSI: 236329000.

Date/timePositionNaut miles runAvg speedWind from/ knotsBaromVisibWave heightAir tempDewpointWater temp
2015-Jul-01 04:33N 51°30' E 001°29'0 0.0
2015-Jul-01 03:33N 51°30' E 001°29'0 0.0
2015-Jul-01 02:34N 51°30' E 001°29'0 0.0
2015-Jul-01 01:34N 51°30' E 001°29'0 0.1
2015-Jul-01 00:31N 51°30' E 001°29'0 0.0
2015-Jun-30 23:32N 51°30' E 001°29'0 0.0
2015-Jun-30 22:32N 51°30' E 001°29'0 0.0
2015-Jun-30 21:32N 51°30' E 001°29'0 0.1
2015-Jun-30 20:32N 51°30' E 001°29'0 0.0
2015-Jun-30 19:31N 51°30' E 001°29'0 0.0
2015-Jun-30 18:31N 51°30' E 001°29'0 0.0
2015-Jun-30 17:32N 51°30' E 001°29'0 0.1
2015-Jun-30 16:31N 51°30' E 001°29'0 0.0
2015-Jun-30 15:32N 51°30' E 001°29'1 1.3
2015-Jun-30 14:33N 51°30' E 001°27'1211.8
2015-Jun-30 13:33N 51°29' E 001°08'1211.5
2015-Jun-30 12:33N 51°29' E 000°50'1010.3
2015-Jun-30 11:33N 51°30' E 000°33'0 0.1
2015-Jun-30 10:28N 51°31' E 000°33'0 0.0
2015-Jun-30 09:31N 51°31' E 000°33'0 0.0
2015-Jun-30 08:31N 51°31' E 000°33'0 0.0
2015-Jun-30 07:31N 51°31' E 000°33'0 0.0
2015-Jun-30 06:31N 51°31' E 000°33'0 0.0
2015-Jun-30 05:31N 51°31' E 000°33'0 0.0
2015-Jun-30 04:31N 51°31' E 000°33'0 0.0
2015-Jun-30 03:31N 51°31' E 000°33'0 0.0
2015-Jun-30 02:31N 51°31' E 000°33'0 0.0
2015-Jun-30 01:31N 51°31' E 000°33'0 0.0
2015-Jun-30 00:31N 51°31' E 000°33'0 0.0
2015-Jun-29 23:31N 51°31' E 000°33'0 0.0
2015-Jun-29 22:31N 51°31' E 000°33'0 0.0
2015-Jun-29 21:31N 51°31' E 000°33'0 0.0
2015-Jun-29 20:31N 51°31' E 000°33'0 0.0
2015-Jun-29 19:31N 51°31' E 000°33'0 0.0
2015-Jun-29 18:31N 51°31' E 000°33'0 0.0
2015-Jun-29 17:31N 51°31' E 000°33'0 0.0
2015-Jun-29 16:31N 51°31' E 000°33'0 0.0
2015-Jun-29 15:31N 51°31' E 000°33'0 0.1
2015-Jun-29 14:33N 51°30' E 000°33'7 6.9
2015-Jun-29 13:33N 51°30' E 000°45'7 7.1
2015-Jun-29 12:33N 51°29' E 000°56'6 6.3
2015-Jun-29 11:33N 51°30' E 001°06'7 6.8
2015-Jun-29 10:33N 51°29' E 001°17'6 6.5
2015-Jun-29 09:33N 51°30' E 001°27'2 1.6
2015-Jun-29 08:31N 51°30' E 001°30'0 0.1
2015-Jun-29 07:31N 51°30' E 001°30'1 1.0
2015-Jun-29 06:31N 51°30' E 001°28'0 0.0
2015-Jun-29 05:31N 51°30' E 001°28'0 0.0
2015-Jun-29 04:31N 51°30' E 001°28'0 0.1
2015-Jun-29 03:31N 51°30' E 001°28'0 0.0
2015-Jun-29 02:33N 51°30' E 001°28'0 0.0
2015-Jun-29 01:33N 51°30' E 001°28'0 0.0
2015-Jun-29 00:33N 51°30' E 001°28'0 0.0
2015-Jun-28 23:33N 51°30' E 001°28'0 0.0
2015-Jun-28 22:33N 51°30' E 001°28'0 0.1
2015-Jun-28 21:33N 51°30' E 001°28'0 0.0
2015-Jun-28 20:33N 51°30' E 001°28'0 0.0
2015-Jun-28 19:33N 51°30' E 001°28'6 6.1
2015-Jun-28 18:33N 51°25' E 001°33'1010.1
2015-Jun-28 17:33N 51°15' E 001°36'9 8.6
2015-Jun-28 16:33N 51°08' E 001°28'6 2.6
2015-Jun-28 14:14N 51°07' E 001°19'3 0.5
2015-Jun-28 09:04N 51°08' E 001°23'4 7.4
2015-Jun-28 08:33N 51°08' E 001°29'2 1.8
2015-Jun-28 07:34N 51°09' E 001°31'1 0.9
2015-Jun-28 06:33N 51°08' E 001°31'9 8.6
2015-Jun-28 05:33N 51°01' E 001°40'8 7.9
2015-Jun-28 04:32N 50°58' E 001°52'0 0.0
2015-Jun-28 03:32N 50°58' E 001°52'0 0.0
2015-Jun-28 02:32N 50°58' E 001°52'0 0.2
2015-Jun-28 01:32N 50°58' E 001°51'0 0.0
2015-Jun-28 00:32N 50°58' E 001°51'0 0.0
2015-Jun-27 23:27N 50°58' E 001°51'0 0.4
2015-Jun-27 22:30N 50°58' E 001°52'0 0.5
2015-Jun-27 21:33N 50°58' E 001°51'5 5.3
2015-Jun-27 20:33N 51°00' E 001°43'1 0.7
2015-Jun-27 19:33N 51°01' E 001°44'2 1.9
2015-Jun-27 18:33N 51°02' E 001°42'10 9.7
2015-Jun-27 17:33N 51°11' E 001°36'1111.2
2015-Jun-27 16:33N 51°22' E 001°35'9 8.8
2015-Jun-27 15:33N 51°30' E 001°29'0 0.0
2015-Jun-27 14:33N 51°30' E 001°29'0 0.0
2015-Jun-27 13:33N 51°30' E 001°29'0 0.0
2015-Jun-27 12:33N 51°30' E 001°29'0 0.0
2015-Jun-27 11:33N 51°30' E 001°29'0 0.0
2015-Jun-27 10:33N 51°30' E 001°29'0 0.0
2015-Jun-27 09:33N 51°31' E 001°29'0 0.0
2015-Jun-27 08:33N 51°31' E 001°29'0 0.0
2015-Jun-27 07:33N 51°31' E 001°29'0 0.0
2015-Jun-27 06:33N 51°30' E 001°29'0 0.0
2015-Jun-27 05:33N 51°30' E 001°29'0 0.0
2015-Jun-27 04:33N 51°30' E 001°29'0 0.0
2015-Jun-27 03:33N 51°30' E 001°29'0 0.1
2015-Jun-27 02:33N 51°30' E 001°29'0 0.1
2015-Jun-27 01:33N 51°30' E 001°29'0 0.0
2015-Jun-27 00:33N 51°30' E 001°29'0 0.0
2015-Jun-26 23:33N 51°30' E 001°29'0 0.0
2015-Jun-26 22:33N 51°30' E 001°29'0 0.0
2015-Jun-26 21:30N 51°31' E 001°29'2 1.7
2015-Jun-26 20:32N 51°31' E 001°31'0 0.0
2015-Jun-26 19:32N 51°31' E 001°31'0 0.0
2015-Jun-26 18:32N 51°31' E 001°31'0 0.0
2015-Jun-26 17:33N 51°31' E 001°31'2 1.5
2015-Jun-26 16:32N 51°30' E 001°29'0 0.0
2015-Jun-26 15:32N 51°30' E 001°29'0 0.1
2015-Jun-26 14:32N 51°30' E 001°29'0 0.1
2015-Jun-26 13:32N 51°30' E 001°30'0 0.0
2015-Jun-26 12:32N 51°30' E 001°30'0 0.0
2015-Jun-26 11:32N 51°30' E 001°30'0 0.0
2015-Jun-26 10:32N 51°30' E 001°30'0 0.0
2015-Jun-26 09:32N 51°30' E 001°30'0 0.0
2015-Jun-26 08:32N 51°30' E 001°30'0 0.1
2015-Jun-26 07:33N 51°30' E 001°30'2 1.8
2015-Jun-26 06:32N 51°32' E 001°30'0 0.0
2015-Jun-26 05:32N 51°32' E 001°30'0 0.0
2015-Jun-26 04:32N 51°32' E 001°30'1 0.7
2015-Jun-26 03:33N 51°32' E 001°29'1 1.4
2015-Jun-26 02:33N 51°30' E 001°29'0 0.0
2015-Jun-26 01:33N 51°30' E 001°29'0 0.1
2015-Jun-26 00:33N 51°30' E 001°29'0 0.0
2015-Jun-25 23:33N 51°30' E 001°29'0 0.0
2015-Jun-25 22:33N 51°30' E 001°29'0 0.0
2015-Jun-25 21:33N 51°30' E 001°29'0 0.0
2015-Jun-25 20:33N 51°30' E 001°29'0 0.1
2015-Jun-25 19:33N 51°30' E 001°29'1 0.8
2015-Jun-25 18:33N 51°30' E 001°30'0 0.1
2015-Jun-25 17:33N 51°30' E 001°30'0 0.2
2015-Jun-25 16:33N 51°30' E 001°30'2 1.8
2015-Jun-25 15:33N 51°30' E 001°27'8 8.3
2015-Jun-25 14:33N 51°29' E 001°14'9 9.5
2015-Jun-25 13:33N 51°29' E 000°59'1010.1
2015-Jun-25 12:33N 51°30' E 000°43'6 5.6
2015-Jun-25 11:32N 51°31' E 000°33'0 0.0
2015-Jun-25 10:32N 51°31' E 000°33'0 0.0
2015-Jun-25 09:32N 51°31' E 000°33'0 0.0
2015-Jun-25 08:32N 51°31' E 000°33'0 0.0
2015-Jun-25 07:32N 51°31' E 000°33'0 0.0
2015-Jun-25 06:32N 51°31' E 000°33'0 0.0
2015-Jun-25 05:32N 51°31' E 000°33'0 0.0
2015-Jun-25 04:32N 51°31' E 000°33'0 0.0
2015-Jun-25 03:32N 51°31' E 000°33'0 0.0
2015-Jun-25 02:32N 51°31' E 000°33'0 0.0
2015-Jun-25 01:32N 51°31' E 000°33'0 0.0
2015-Jun-25 00:32N 51°31' E 000°33'0 0.0
2015-Jun-24 23:32N 51°31' E 000°33'0 0.0
2015-Jun-24 22:32N 51°31' E 000°33'0 0.0
2015-Jun-24 21:32N 51°31' E 000°33'1 0.6
2015-Jun-24 20:34N 51°30' E 000°34'8 8.3
2015-Jun-24 19:33N 51°30' E 000°47'6 5.9
2015-Jun-24 18:33N 51°29' E 000°57'8 7.9
2015-Jun-24 17:31N 51°29' E 001°10'1010.1
2015-Jun-24 16:33N 51°30' E 001°26'2 1.7
2015-Jun-24 15:28N 51°30' E 001°28'0 0.0
2015-Jun-24 14:31N 51°30' E 001°28'0 0.0
2015-Jun-24 13:31N 51°30' E 001°28'0 0.0
2015-Jun-24 12:31N 51°30' E 001°28'0 0.1
2015-Jun-24 11:31N 51°30' E 001°28'0 0.0
2015-Jun-24 10:28N 51°30' E 001°29'0 0.0
2015-Jun-24 09:31N 51°30' E 001°29'0 0.0
2015-Jun-24 08:31N 51°30' E 001°29'0 0.0
2015-Jun-24 07:31N 51°30' E 001°29'0 0.0
2015-Jun-24 06:31N 51°30' E 001°28'0 0.1
2015-Jun-24 05:31N 51°30' E 001°28'0 0.0
2015-Jun-24 04:32N 51°30' E 001°28'2 1.9
2015-Jun-24 03:32N 51°32' E 001°30'0 0.0
2015-Jun-24 02:32N 51°32' E 001°30'0 0.1
2015-Jun-24 01:33N 51°32' E 001°30'2 1.8
2015-Jun-24 00:31N 51°30' E 001°29'0 0.0
2015-Jun-23 23:31N 51°30' E 001°29'0 0.1
2015-Jun-23 22:31N 51°30' E 001°29'0 0.0
2015-Jun-23 21:31N 51°30' E 001°29'0 0.0
2015-Jun-23 20:32N 51°30' E 001°29'0 0.0
2015-Jun-23 19:29N 51°30' E 001°29'0 0.0
2015-Jun-23 19:05N 51°30' E 001°29'0 0.0
2015-Jun-22 19:32N 51°30' E 001°29'0 0.0
2015-Jun-22 18:33N 51°30' E 001°29'1 0.5
2015-Jun-22 17:33N 51°30' E 001°30'1 0.7
2015-Jun-22 16:31N 51°30' E 001°28'0 0.1
2015-Jun-22 15:31N 51°30' E 001°28'0 0.0
2015-Jun-22 14:31N 51°30' E 001°28'0 0.0
2015-Jun-22 13:31N 51°30' E 001°28'0 0.0
2015-Jun-22 12:28N 51°30' E 001°28'0 0.0
2015-Jun-22 11:28N 51°30' E 001°28'0 0.1
2015-Jun-22 10:31N 51°30' E 001°28'0 0.0
2015-Jun-22 09:31N 51°30' E 001°28'1 1.0
2015-Jun-22 08:31N 51°31' E 001°29'0 0.0
2015-Jun-22 07:31N 51°31' E 001°29'0 0.0
2015-Jun-22 06:31N 51°31' E 001°29'0 0.4
2015-Jun-22 05:34N 51°31' E 001°29'1 0.9
2015-Jun-22 04:32N 51°30' E 001°29'0 0.1
2015-Jun-22 03:32N 51°30' E 001°29'0 0.1
2015-Jun-22 02:32N 51°30' E 001°29'0 0.0
2015-Jun-22 01:32N 51°30' E 001°29'0 0.0
2015-Jun-22 00:32N 51°30' E 001°29'0 0.0
2015-Jun-21 23:32N 51°30' E 001°29'0 0.1
2015-Jun-21 22:32N 51°30' E 001°29'0 0.0
2015-Jun-21 21:32N 51°30' E 001°29'0 0.0
2015-Jun-21 20:32N 51°30' E 001°29'0 0.0
2015-Jun-21 19:29N 51°30' E 001°29'0 0.0
2015-Jun-21 18:29N 51°30' E 001°29'0 0.4
2015-Jun-21 17:33N 51°30' E 001°29'1 1.0
2015-Jun-21 16:33N 51°31' E 001°31'0 0.1
2015-Jun-21 15:33N 51°31' E 001°30'0 0.1
2015-Jun-21 14:33N 51°31' E 001°30'0 0.0
2015-Jun-21 13:33N 51°31' E 001°30'3 2.6
2015-Jun-21 12:33N 51°30' E 001°34'8 7.8
2015-Jun-21 11:33N 51°28' E 001°46'8 8.4
2015-Jun-21 10:34N 51°26' E 001°59'8 7.4
2015-Jun-21 09:32N 51°20' E 002°07'7 7.3
2015-Jun-21 08:33N 51°13' E 002°02'9 8.6
2015-Jun-21 07:33N 51°09' E 001°50'1010.0
2015-Jun-21 06:34N 51°00' E 001°43'6 4.0
2015-Jun-21 05:09N 50°58' E 001°52'  
Track history (hours):
 
Tides and Currents Weather Stations Pressure Air Temp Water Temp Dewpoint Dewpoint Depression Visibility Wind Speed Wind Dir Waves Ship Positions

LS Concorde

Last reported at 2015-Jul-01 04:33 UTC. Time now 2015-Jul-01 04:48 UTC.
Position N 51°30' E 001°29'.

Length 99 m; draft 6 m.

Type: Tanker. MMSI: 236329000.

Date/timePositionNaut miles runAvg speedWind from/ knotsBaromVisibWave heightAir tempDewpointWater temp
2015-Jul-01 04:33N 51°30' E 001°29'0 0.0
2015-Jul-01 03:33N 51°30' E 001°29'0 0.0
2015-Jul-01 02:34N 51°30' E 001°29'0 0.0
2015-Jul-01 01:34N 51°30' E 001°29'0 0.1
2015-Jul-01 00:31N 51°30' E 001°29'0 0.0
2015-Jun-30 23:32N 51°30' E 001°29'0 0.0
2015-Jun-30 22:32N 51°30' E 001°29'0 0.0
2015-Jun-30 21:32N 51°30' E 001°29'0 0.1
2015-Jun-30 20:32N 51°30' E 001°29'0 0.0
2015-Jun-30 19:31N 51°30' E 001°29'0 0.0
2015-Jun-30 18:31N 51°30' E 001°29'0 0.0
2015-Jun-30 17:32N 51°30' E 001°29'0 0.1
2015-Jun-30 16:31N 51°30' E 001°29'0 0.0
2015-Jun-30 15:32N 51°30' E 001°29'1 1.3
2015-Jun-30 14:33N 51°30' E 001°27'1211.8
2015-Jun-30 13:33N 51°29' E 001°08'1211.5
2015-Jun-30 12:33N 51°29' E 000°50'1010.3
2015-Jun-30 11:33N 51°30' E 000°33'0 0.1
2015-Jun-30 10:28N 51°31' E 000°33'0 0.0
2015-Jun-30 09:31N 51°31' E 000°33'0 0.0
2015-Jun-30 08:31N 51°31' E 000°33'0 0.0
2015-Jun-30 07:31N 51°31' E 000°33'0 0.0
2015-Jun-30 06:31N 51°31' E 000°33'0 0.0
2015-Jun-30 05:31N 51°31' E 000°33'0 0.0
2015-Jun-30 04:31N 51°31' E 000°33'0 0.0
2015-Jun-30 03:31N 51°31' E 000°33'0 0.0
2015-Jun-30 02:31N 51°31' E 000°33'0 0.0
2015-Jun-30 01:31N 51°31' E 000°33'0 0.0
2015-Jun-30 00:31N 51°31' E 000°33'0 0.0
2015-Jun-29 23:31N 51°31' E 000°33'0 0.0
2015-Jun-29 22:31N 51°31' E 000°33'0 0.0
2015-Jun-29 21:31N 51°31' E 000°33'0 0.0
2015-Jun-29 20:31N 51°31' E 000°33'0 0.0
2015-Jun-29 19:31N 51°31' E 000°33'0 0.0
2015-Jun-29 18:31N 51°31' E 000°33'0 0.0
2015-Jun-29 17:31N 51°31' E 000°33'0 0.0
2015-Jun-29 16:31N 51°31' E 000°33'0 0.0
2015-Jun-29 15:31N 51°31' E 000°33'0 0.1
2015-Jun-29 14:33N 51°30' E 000°33'7 6.9
2015-Jun-29 13:33N 51°30' E 000°45'7 7.1
2015-Jun-29 12:33N 51°29' E 000°56'6 6.3
2015-Jun-29 11:33N 51°30' E 001°06'7 6.8
2015-Jun-29 10:33N 51°29' E 001°17'6 6.5
2015-Jun-29 09:33N 51°30' E 001°27'2 1.6
2015-Jun-29 08:31N 51°30' E 001°30'0 0.1
2015-Jun-29 07:31N 51°30' E 001°30'1 1.0
2015-Jun-29 06:31N 51°30' E 001°28'0 0.0
2015-Jun-29 05:31N 51°30' E 001°28'0 0.0
2015-Jun-29 04:31N 51°30' E 001°28'0 0.1
2015-Jun-29 03:31N 51°30' E 001°28'0 0.0
2015-Jun-29 02:33N 51°30' E 001°28'0 0.0
2015-Jun-29 01:33N 51°30' E 001°28'0 0.0
2015-Jun-29 00:33N 51°30' E 001°28'0 0.0
2015-Jun-28 23:33N 51°30' E 001°28'0 0.0
2015-Jun-28 22:33N 51°30' E 001°28'0 0.1
2015-Jun-28 21:33N 51°30' E 001°28'0 0.0
2015-Jun-28 20:33N 51°30' E 001°28'0 0.0
2015-Jun-28 19:33N 51°30' E 001°28'6 6.1
2015-Jun-28 18:33N 51°25' E 001°33'1010.1
2015-Jun-28 17:33N 51°15' E 001°36'9 8.6
2015-Jun-28 16:33N 51°08' E 001°28'6 2.6
2015-Jun-28 14:14N 51°07' E 001°19'3 0.5
2015-Jun-28 09:04N 51°08' E 001°23'4 7.4
2015-Jun-28 08:33N 51°08' E 001°29'2 1.8
2015-Jun-28 07:34N 51°09' E 001°31'1 0.9
2015-Jun-28 06:33N 51°08' E 001°31'9 8.6
2015-Jun-28 05:33N 51°01' E 001°40'8 7.9
2015-Jun-28 04:32N 50°58' E 001°52'0 0.0
2015-Jun-28 03:32N 50°58' E 001°52'0 0.0
2015-Jun-28 02:32N 50°58' E 001°52'0 0.2
2015-Jun-28 01:32N 50°58' E 001°51'0 0.0
2015-Jun-28 00:32N 50°58' E 001°51'0 0.0
2015-Jun-27 23:27N 50°58' E 001°51'0 0.4
2015-Jun-27 22:30N 50°58' E 001°52'0 0.5
2015-Jun-27 21:33N 50°58' E 001°51'5 5.3
2015-Jun-27 20:33N 51°00' E 001°43'1 0.7
2015-Jun-27 19:33N 51°01' E 001°44'2 1.9
2015-Jun-27 18:33N 51°02' E 001°42'10 9.7
2015-Jun-27 17:33N 51°11' E 001°36'1111.2
2015-Jun-27 16:33N 51°22' E 001°35'9 8.8
2015-Jun-27 15:33N 51°30' E 001°29'0 0.0
2015-Jun-27 14:33N 51°30' E 001°29'0 0.0
2015-Jun-27 13:33N 51°30' E 001°29'0 0.0
2015-Jun-27 12:33N 51°30' E 001°29'0 0.0
2015-Jun-27 11:33N 51°30' E 001°29'0 0.0
2015-Jun-27 10:33N 51°30' E 001°29'0 0.0
2015-Jun-27 09:33N 51°31' E 001°29'0 0.0
2015-Jun-27 08:33N 51°31' E 001°29'0 0.0
2015-Jun-27 07:33N 51°31' E 001°29'0 0.0
2015-Jun-27 06:33N 51°30' E 001°29'0 0.0
2015-Jun-27 05:33N 51°30' E 001°29'0 0.0
2015-Jun-27 04:33N 51°30' E 001°29'0 0.0
2015-Jun-27 03:33N 51°30' E 001°29'0 0.1
2015-Jun-27 02:33N 51°30' E 001°29'0 0.1
2015-Jun-27 01:33N 51°30' E 001°29'0 0.0
2015-Jun-27 00:33N 51°30' E 001°29'0 0.0
2015-Jun-26 23:33N 51°30' E 001°29'0 0.0
2015-Jun-26 22:33N 51°30' E 001°29'0 0.0
2015-Jun-26 21:30N 51°31' E 001°29'2 1.7
2015-Jun-26 20:32N 51°31' E 001°31'0 0.0
2015-Jun-26 19:32N 51°31' E 001°31'0 0.0
2015-Jun-26 18:32N 51°31' E 001°31'0 0.0
2015-Jun-26 17:33N 51°31' E 001°31'2 1.5
2015-Jun-26 16:32N 51°30' E 001°29'0 0.0
2015-Jun-26 15:32N 51°30' E 001°29'0 0.1
2015-Jun-26 14:32N 51°30' E 001°29'0 0.1
2015-Jun-26 13:32N 51°30' E 001°30'0 0.0
2015-Jun-26 12:32N 51°30' E 001°30'0 0.0
2015-Jun-26 11:32N 51°30' E 001°30'0 0.0
2015-Jun-26 10:32N 51°30' E 001°30'0 0.0
2015-Jun-26 09:32N 51°30' E 001°30'0 0.0
2015-Jun-26 08:32N 51°30' E 001°30'0 0.1
2015-Jun-26 07:33N 51°30' E 001°30'2 1.8
2015-Jun-26 06:32N 51°32' E 001°30'0 0.0
2015-Jun-26 05:32N 51°32' E 001°30'0 0.0
2015-Jun-26 04:32N 51°32' E 001°30'1 0.7
2015-Jun-26 03:33N 51°32' E 001°29'1 1.4
2015-Jun-26 02:33N 51°30' E 001°29'0 0.0
2015-Jun-26 01:33N 51°30' E 001°29'0 0.1
2015-Jun-26 00:33N 51°30' E 001°29'0 0.0
2015-Jun-25 23:33N 51°30' E 001°29'0 0.0
2015-Jun-25 22:33N 51°30' E 001°29'0 0.0
2015-Jun-25 21:33N 51°30' E 001°29'0 0.0
2015-Jun-25 20:33N 51°30' E 001°29'0 0.1
2015-Jun-25 19:33N 51°30' E 001°29'1 0.8
2015-Jun-25 18:33N 51°30' E 001°30'0 0.1
2015-Jun-25 17:33N 51°30' E 001°30'0 0.2
2015-Jun-25 16:33N 51°30' E 001°30'2 1.8
2015-Jun-25 15:33N 51°30' E 001°27'8 8.3
2015-Jun-25 14:33N 51°29' E 001°14'9 9.5
2015-Jun-25 13:33N 51°29' E 000°59'1010.1
2015-Jun-25 12:33N 51°30' E 000°43'6 5.6
2015-Jun-25 11:32N 51°31' E 000°33'0 0.0
2015-Jun-25 10:32N 51°31' E 000°33'0 0.0
2015-Jun-25 09:32N 51°31' E 000°33'0 0.0
2015-Jun-25 08:32N 51°31' E 000°33'0 0.0
2015-Jun-25 07:32N 51°31' E 000°33'0 0.0
2015-Jun-25 06:32N 51°31' E 000°33'0 0.0
2015-Jun-25 05:32N 51°31' E 000°33'0 0.0
2015-Jun-25 04:32N 51°31' E 000°33'0 0.0
2015-Jun-25 03:32N 51°31' E 000°33'0 0.0
2015-Jun-25 02:32N 51°31' E 000°33'0 0.0
2015-Jun-25 01:32N 51°31' E 000°33'0 0.0
2015-Jun-25 00:32N 51°31' E 000°33'0 0.0
2015-Jun-24 23:32N 51°31' E 000°33'0 0.0
2015-Jun-24 22:32N 51°31' E 000°33'0 0.0
2015-Jun-24 21:32N 51°31' E 000°33'1 0.6
2015-Jun-24 20:34N 51°30' E 000°34'8 8.3
2015-Jun-24 19:33N 51°30' E 000°47'6 5.9
2015-Jun-24 18:33N 51°29' E 000°57'8 7.9
2015-Jun-24 17:31N 51°29' E 001°10'1010.1
2015-Jun-24 16:33N 51°30' E 001°26'2 1.7
2015-Jun-24 15:28N 51°30' E 001°28'0 0.0
2015-Jun-24 14:31N 51°30' E 001°28'0 0.0
2015-Jun-24 13:31N 51°30' E 001°28'0 0.0
2015-Jun-24 12:31N 51°30' E 001°28'0 0.1
2015-Jun-24 11:31N 51°30' E 001°28'0 0.0
2015-Jun-24 10:28N 51°30' E 001°29'0 0.0
2015-Jun-24 09:31N 51°30' E 001°29'0 0.0
2015-Jun-24 08:31N 51°30' E 001°29'0 0.0
2015-Jun-24 07:31N 51°30' E 001°29'0 0.0
2015-Jun-24 06:31N 51°30' E 001°28'0 0.1
2015-Jun-24 05:31N 51°30' E 001°28'0 0.0
2015-Jun-24 04:32N 51°30' E 001°28'2 1.9
2015-Jun-24 03:32N 51°32' E 001°30'0 0.0
2015-Jun-24 02:32N 51°32' E 001°30'0 0.1
2015-Jun-24 01:33N 51°32' E 001°30'2 1.8
2015-Jun-24 00:31N 51°30' E 001°29'0 0.0
2015-Jun-23 23:31N 51°30' E 001°29'0 0.1
2015-Jun-23 22:31N 51°30' E 001°29'0 0.0
2015-Jun-23 21:31N 51°30' E 001°29'0 0.0
2015-Jun-23 20:32N 51°30' E 001°29'0 0.0
2015-Jun-23 19:29N 51°30' E 001°29'0 0.0
2015-Jun-23 19:05N 51°30' E 001°29'0 0.0
2015-Jun-22 19:32N 51°30' E 001°29'0 0.0
2015-Jun-22 18:33N 51°30' E 001°29'1 0.5
2015-Jun-22 17:33N 51°30' E 001°30'1 0.7
2015-Jun-22 16:31N 51°30' E 001°28'0 0.1
2015-Jun-22 15:31N 51°30' E 001°28'0 0.0
2015-Jun-22 14:31N 51°30' E 001°28'0 0.0
2015-Jun-22 13:31N 51°30' E 001°28'0 0.0
2015-Jun-22 12:28N 51°30' E 001°28'0 0.0
2015-Jun-22 11:28N 51°30' E 001°28'0 0.1
2015-Jun-22 10:31N 51°30' E 001°28'0 0.0
2015-Jun-22 09:31N 51°30' E 001°28'1 1.0
2015-Jun-22 08:31N 51°31' E 001°29'0 0.0
2015-Jun-22 07:31N 51°31' E 001°29'0 0.0
2015-Jun-22 06:31N 51°31' E 001°29'0 0.4
2015-Jun-22 05:34N 51°31' E 001°29'1 0.9
2015-Jun-22 04:32N 51°30' E 001°29'0 0.1
2015-Jun-22 03:32N 51°30' E 001°29'0 0.1
2015-Jun-22 02:32N 51°30' E 001°29'0 0.0
2015-Jun-22 01:32N 51°30' E 001°29'0 0.0
2015-Jun-22 00:32N 51°30' E 001°29'0 0.0
2015-Jun-21 23:32N 51°30' E 001°29'0 0.1
2015-Jun-21 22:32N 51°30' E 001°29'0 0.0
2015-Jun-21 21:32N 51°30' E 001°29'0 0.0
2015-Jun-21 20:32N 51°30' E 001°29'0 0.0
2015-Jun-21 19:29N 51°30' E 001°29'0 0.0
2015-Jun-21 18:29N 51°30' E 001°29'0 0.4
2015-Jun-21 17:33N 51°30' E 001°29'1 1.0
2015-Jun-21 16:33N 51°31' E 001°31'0 0.1
2015-Jun-21 15:33N 51°31' E 001°30'0 0.1
2015-Jun-21 14:33N 51°31' E 001°30'0 0.0
2015-Jun-21 13:33N 51°31' E 001°30'3 2.6
2015-Jun-21 12:33N 51°30' E 001°34'8 7.8
2015-Jun-21 11:33N 51°28' E 001°46'8 8.4
2015-Jun-21 10:34N 51°26' E 001°59'8 7.4
2015-Jun-21 09:32N 51°20' E 002°07'7 7.3
2015-Jun-21 08:33N 51°13' E 002°02'9 8.6
2015-Jun-21 07:33N 51°09' E 001°50'1010.0
2015-Jun-21 06:34N 51°00' E 001°43'6 4.0
2015-Jun-21 05:09N 50°58' E 001°52'  

Dump ship's entire track history